EZY25RN EGKK-LJLJ
Flight info
| Callsign | EZY25RN |
|---|---|
| Flight time | N/A |
| Altitude | 37000 |
| Route | ODVIK Y311 DVR UL9 KONAN DCT KOK DCT REMBA DCT RITAX DCT PITES DCT BABEG DCT KUMOM DCT LUMUS LUMUS4L |
| Aircraft | A320/M-SDE2E3FGHIRWXY/LB1 |
Departure
| Time | N/A |
|---|---|
| Airport | London Gatwick Airport (EGKK) |
Arrival
| Time | 2026-04-10 23:32 |
|---|---|
| Airport | Ljubljana Jože Pučnik Airport (LJLJ) |
| Time | Latitude | Longitude | Altitude | Speed | Heading |
|---|---|---|---|---|---|
| 2026-04-10 22:58 | 48.27817 | 10.65313 | 37083 ft | 529 kts | 120° |
| 2026-04-10 22:58 | 48.24005 | 10.74683 | 37068 ft | 529 kts | 120° |
| 2026-04-10 22:59 | 48.20183 | 10.84058 | 37083 ft | 527 kts | 120° |
| 2026-04-10 22:59 | 48.16348 | 10.93426 | 37075 ft | 527 kts | 120° |
| 2026-04-10 23:00 | 48.12504 | 11.02775 | 37076 ft | 526 kts | 120° |
| 2026-04-10 23:00 | 48.08672 | 11.12051 | 37054 ft | 526 kts | 120° |
| 2026-04-10 23:01 | 48.04818 | 11.21370 | 37106 ft | 525 kts | 121° |
| 2026-04-10 23:01 | 48.00988 | 11.30604 | 37081 ft | 524 kts | 121° |
| 2026-04-10 23:02 | 47.97120 | 11.39877 | 37094 ft | 524 kts | 121° |
| 2026-04-10 23:02 | 47.93284 | 11.49048 | 37083 ft | 523 kts | 121° |
| 2026-04-10 23:03 | 47.89420 | 11.58278 | 37114 ft | 524 kts | 121° |
| 2026-04-10 23:03 | 47.85551 | 11.67473 | 37110 ft | 524 kts | 121° |
| 2026-04-10 23:04 | 47.81694 | 11.76597 | 37072 ft | 524 kts | 121° |
| 2026-04-10 23:04 | 47.77798 | 11.85792 | 37086 ft | 524 kts | 121° |
| 2026-04-10 23:05 | 47.73897 | 11.94961 | 37097 ft | 524 kts | 122° |
| 2026-04-10 23:05 | 47.70008 | 12.04078 | 37099 ft | 525 kts | 122° |
| 2026-04-10 23:06 | 47.66085 | 12.13240 | 37097 ft | 524 kts | 122° |
| 2026-04-10 23:06 | 47.62187 | 12.22301 | 37085 ft | 524 kts | 122° |
| 2026-04-10 23:07 | 47.58251 | 12.31439 | 37083 ft | 525 kts | 122° |
| 2026-04-10 23:07 | 47.54105 | 12.40362 | 37055 ft | 524 kts | 129° |
| 2026-04-10 23:08 | 47.49645 | 12.48823 | 37075 ft | 524 kts | 129° |
| 2026-04-10 23:08 | 47.45149 | 12.57341 | 37090 ft | 524 kts | 129° |
| 2026-04-10 23:09 | 47.40654 | 12.65830 | 37077 ft | 525 kts | 128° |
| 2026-04-10 23:09 | 47.33916 | 12.78520 | 36768 ft | 527 kts | 128° |
| 2026-04-10 23:10 | 47.31656 | 12.82750 | 36464 ft | 524 kts | 128° |
| 2026-04-10 23:10 | 47.29384 | 12.86999 | 35987 ft | 527 kts | 128° |
| 2026-04-10 23:10 | 47.27128 | 12.91223 | 35339 ft | 527 kts | 127° |
| 2026-04-10 23:10 | 47.24864 | 12.95454 | 34733 ft | 529 kts | 127° |
| 2026-04-10 23:11 | 47.22580 | 12.99717 | 34072 ft | 532 kts | 126° |
| 2026-04-10 23:11 | 47.20278 | 13.04003 | 33359 ft | 533 kts | 127° |
| 2026-04-10 23:11 | 47.17977 | 13.08277 | 32746 ft | 534 kts | 127° |
| 2026-04-10 23:11 | 47.15669 | 13.12565 | 32106 ft | 534 kts | 126° |
| 2026-04-10 23:12 | 47.13390 | 13.16790 | 31482 ft | 534 kts | 127° |
| 2026-04-10 23:12 | 47.11077 | 13.21069 | 30844 ft | 534 kts | 127° |
| 2026-04-10 23:12 | 47.08754 | 13.25353 | 30231 ft | 534 kts | 127° |
| 2026-04-10 23:12 | 47.06442 | 13.29605 | 29567 ft | 531 kts | 127° |
| 2026-04-10 23:13 | 47.04134 | 13.33845 | 28990 ft | 531 kts | 127° |
| 2026-04-10 23:13 | 47.01830 | 13.38073 | 28408 ft | 531 kts | 127° |
| 2026-04-10 23:13 | 46.99530 | 13.42303 | 27828 ft | 531 kts | 127° |
| 2026-04-10 23:13 | 46.97223 | 13.46538 | 27229 ft | 531 kts | 127° |
| 2026-04-10 23:14 | 46.94916 | 13.50768 | 26613 ft | 531 kts | 127° |
| 2026-04-10 23:14 | 46.92640 | 13.54931 | 26019 ft | 528 kts | 128° |
| 2026-04-10 23:14 | 46.90355 | 13.59096 | 25383 ft | 522 kts | 128° |
| 2026-04-10 23:14 | 46.88084 | 13.63224 | 24755 ft | 517 kts | 128° |
| 2026-04-10 23:15 | 46.85836 | 13.67304 | 24098 ft | 511 kts | 128° |
| 2026-04-10 23:15 | 46.83608 | 13.71345 | 23429 ft | 506 kts | 128° |
| 2026-04-10 23:15 | 46.81407 | 13.75329 | 22748 ft | 501 kts | 128° |
| 2026-04-10 23:15 | 46.79204 | 13.79189 | 21875 ft | 499 kts | 133° |
| 2026-04-10 23:16 | 46.76584 | 13.82464 | 20901 ft | 487 kts | 142° |
| 2026-04-10 23:16 | 46.74000 | 13.85422 | 20584 ft | 457 kts | 142° |
| 2026-04-10 23:16 | 46.71542 | 13.88249 | 19897 ft | 442 kts | 141° |
| 2026-04-10 23:16 | 46.69157 | 13.91009 | 19079 ft | 434 kts | 141° |
| 2026-04-10 23:17 | 46.66828 | 13.93712 | 18325 ft | 430 kts | 142° |
| 2026-04-10 23:17 | 46.64481 | 13.96432 | 17792 ft | 431 kts | 141° |
| 2026-04-10 23:17 | 46.62130 | 13.99149 | 17282 ft | 429 kts | 141° |
| 2026-04-10 23:17 | 46.59787 | 14.01850 | 16764 ft | 429 kts | 141° |
| 2026-04-10 23:18 | 46.57453 | 14.04532 | 16273 ft | 425 kts | 141° |
| 2026-04-10 23:18 | 46.55139 | 14.07189 | 15784 ft | 422 kts | 141° |
| 2026-04-10 23:18 | 46.52832 | 14.09831 | 15291 ft | 420 kts | 142° |
| 2026-04-10 23:18 | 46.50575 | 14.12414 | 14786 ft | 417 kts | 141° |
| 2026-04-10 23:19 | 46.48307 | 14.15017 | 14465 ft | 410 kts | 141° |
| 2026-04-10 23:19 | 46.46061 | 14.17595 | 13862 ft | 412 kts | 142° |
| 2026-04-10 23:19 | 46.43833 | 14.20146 | 13386 ft | 407 kts | 142° |
| 2026-04-10 23:19 | 46.41626 | 14.22666 | 13108 ft | 396 kts | 142° |
| 2026-04-10 23:20 | 46.39499 | 14.25088 | 12965 ft | 382 kts | 142° |
| 2026-04-10 23:20 | 46.37470 | 14.27394 | 12836 ft | 369 kts | 142° |
| 2026-04-10 23:20 | 46.35481 | 14.29657 | 12705 ft | 357 kts | 142° |
| 2026-04-10 23:20 | 46.33572 | 14.31830 | 12500 ft | 340 kts | 142° |
| 2026-04-10 23:21 | 46.31735 | 14.33919 | 11993 ft | 331 kts | 142° |
| 2026-04-10 23:21 | 46.29934 | 14.35965 | 11434 ft | 326 kts | 142° |
| 2026-04-10 23:21 | 46.28189 | 14.37945 | 11031 ft | 315 kts | 142° |
| 2026-04-10 23:21 | 46.26497 | 14.39861 | 10764 ft | 301 kts | 142° |
| 2026-04-10 23:22 | 46.24871 | 14.41703 | 10341 ft | 294 kts | 142° |
| 2026-04-10 23:22 | 46.23278 | 14.43506 | 9855 ft | 289 kts | 142° |
| 2026-04-10 23:22 | 46.21727 | 14.45293 | 9313 ft | 286 kts | 142° |
| 2026-04-10 23:22 | 46.20190 | 14.47089 | 8771 ft | 281 kts | 142° |
| 2026-04-10 23:23 | 46.18681 | 14.48860 | 8235 ft | 277 kts | 142° |
| 2026-04-10 23:23 | 46.17187 | 14.50595 | 7705 ft | 273 kts | 146° |
| 2026-04-10 23:23 | 46.15525 | 14.51808 | 7214 ft | 266 kts | 162° |
| 2026-04-10 23:23 | 46.13803 | 14.52654 | 6913 ft | 263 kts | 165° |
| 2026-04-10 23:24 | 46.12071 | 14.53459 | 6596 ft | 259 kts | 165° |
| 2026-04-10 23:24 | 46.10357 | 14.54247 | 6270 ft | 257 kts | 165° |
| 2026-04-10 23:24 | 46.08664 | 14.55022 | 5944 ft | 254 kts | 165° |
| 2026-04-10 23:24 | 46.06989 | 14.55781 | 5596 ft | 251 kts | 165° |
| 2026-04-10 23:25 | 46.05886 | 14.56279 | 5366 ft | 249 kts | 165° |
| 2026-04-10 23:25 | 46.03904 | 14.57808 | 5132 ft | 240 kts | 136° |
| 2026-04-10 23:25 | 46.02996 | 14.59740 | 5061 ft | 227 kts | 111° |
| 2026-04-10 23:25 | 46.02752 | 14.61175 | 5029 ft | 219 kts | 95° |
| 2026-04-10 23:26 | 46.02899 | 14.63289 | 4985 ft | 210 kts | 71° |
| 2026-04-10 23:26 | 46.03587 | 14.65092 | 5120 ft | 208 kts | 49° |
| 2026-04-10 23:26 | 46.04663 | 14.66420 | 5094 ft | 202 kts | 28° |
| 2026-04-10 23:26 | 46.05962 | 14.67085 | 4960 ft | 197 kts | 5° |
| 2026-04-10 23:27 | 46.07319 | 14.67050 | 4818 ft | 195 kts | 350° |
| 2026-04-10 23:27 | 46.08666 | 14.66809 | 4673 ft | 194 kts | 351° |
| 2026-04-10 23:27 | 46.10007 | 14.66577 | 4511 ft | 194 kts | 351° |
| 2026-04-10 23:27 | 46.11289 | 14.66138 | 4397 ft | 191 kts | 334° |
| 2026-04-10 23:28 | 46.12386 | 14.65088 | 4206 ft | 189 kts | 313° |
| 2026-04-10 23:28 | 46.13204 | 14.63611 | 3977 ft | 188 kts | 305° |
| 2026-04-10 23:28 | 46.13959 | 14.62143 | 3735 ft | 176 kts | 305° |
| 2026-04-10 23:28 | 46.14671 | 14.60759 | 3511 ft | 167 kts | 305° |
| 2026-04-10 23:29 | 46.15351 | 14.59438 | 3283 ft | 161 kts | 305° |
| 2026-04-10 23:29 | 46.15995 | 14.58186 | 3074 ft | 155 kts | 306° |
| 2026-04-10 23:29 | 46.16626 | 14.56958 | 2887 ft | 150 kts | 306° |
| 2026-04-10 23:29 | 46.17241 | 14.55761 | 2675 ft | 148 kts | 307° |
| 2026-04-10 23:30 | 46.17844 | 14.54587 | 2474 ft | 147 kts | 307° |
| 2026-04-10 23:30 | 46.18449 | 14.53408 | 2264 ft | 146 kts | 307° |
| 2026-04-10 23:30 | 46.19053 | 14.52232 | 2055 ft | 145 kts | 307° |
| 2026-04-10 23:30 | 46.19651 | 14.51066 | 1849 ft | 143 kts | 307° |
| 2026-04-10 23:31 | 46.20239 | 14.49908 | 1656 ft | 142 kts | 306° |
| 2026-04-10 23:31 | 46.20823 | 14.48757 | 1459 ft | 142 kts | 308° |
| 2026-04-10 23:31 | 46.21409 | 14.47631 | 1280 ft | 142 kts | 308° |
| 2026-04-10 23:31 | 46.21967 | 14.46545 | 1229 ft | 119 kts | 307° |
| 2026-04-10 23:32 | 46.22329 | 14.45835 | 1241 ft | 57 kts | 307° |
| 2026-04-10 23:32 | 46.22541 | 14.45462 | 1248 ft | 36 kts | 319° |
| 2026-04-10 23:32 | 46.22725 | 14.45339 | 1260 ft | 19 kts | 346° |
| 2026-04-10 23:32 | 46.22851 | 14.45327 | 1265 ft | 18 kts | 22° |
| 2026-04-10 23:33 | 46.22938 | 14.45407 | 1258 ft | 9 kts | 24° |
| 2026-04-10 23:33 | 46.22986 | 14.45449 | 1263 ft | 3 kts | 36° |
| 2026-04-10 23:33 | 46.22999 | 14.45462 | 1265 ft | 2 kts | 36° |
| 2026-04-10 23:33 | 46.23003 | 14.45467 | 1264 ft | 0 kts | 37° |